createdAt,value
2022-12-03T00:01:35.893Z,101191.03
2022-12-03T00:04:04.016Z,101190.38
2022-12-03T00:06:34.703Z,101193.94
2022-12-03T00:09:02.992Z,101190.94
2022-12-03T00:11:32.641Z,101185.00
2022-12-03T00:14:00.708Z,101194.59
2022-12-03T00:16:28.797Z,101174.25
2022-12-03T00:18:56.899Z,101183.75
2022-12-03T00:21:25.062Z,101193.16
2022-12-03T00:23:53.119Z,101189.22
2022-12-03T00:26:21.214Z,101193.81
2022-12-03T00:28:51.298Z,101193.75
2022-12-03T00:31:21.430Z,101188.63
2022-12-03T00:33:49.446Z,101195.25
2022-12-03T00:36:17.405Z,101182.88
2022-12-03T00:38:45.378Z,101194.72
2022-12-03T00:41:13.370Z,101188.94
2022-12-03T00:43:41.398Z,101186.84
2022-12-03T00:46:10.915Z,101178.56
2022-12-03T00:48:38.874Z,101191.03
2022-12-03T00:51:07.216Z,101191.13
2022-12-03T00:53:35.748Z,101192.00
2022-12-03T00:56:03.724Z,101180.75
2022-12-03T00:58:31.685Z,101182.50
2022-12-03T01:00:59.827Z,101171.72
2022-12-03T01:03:29.326Z,101181.13
2022-12-03T01:05:57.338Z,101179.13
2022-12-03T01:08:25.358Z,101191.69
2022-12-03T01:10:53.398Z,101197.25
2022-12-03T01:13:21.404Z,101192.94
2022-12-03T01:15:49.422Z,101196.59
2022-12-03T01:18:17.341Z,101193.78
2022-12-03T01:20:46.635Z,101185.66
2022-12-03T01:23:14.367Z,101184.78
2022-12-03T01:25:42.375Z,101190.16
2022-12-03T01:28:10.558Z,101183.81
2022-12-03T01:30:59.134Z,101185.84
2022-12-03T01:33:26.268Z,101184.69
2022-12-03T01:35:55.563Z,101176.53
2022-12-03T01:38:23.348Z,101181.72
2022-12-03T01:40:51.723Z,101184.41
2022-12-03T01:43:19.722Z,101186.50
2022-12-03T01:45:47.736Z,101189.28
2022-12-03T01:48:17.665Z,101193.97
2022-12-03T01:50:46.430Z,101195.03
2022-12-03T01:53:18.351Z,101201.56
2022-12-03T01:55:48.759Z,101192.25
2022-12-03T01:58:18.432Z,101206.38
2022-12-03T02:00:46.229Z,101195.72
2022-12-03T02:03:24.553Z,101193.13
2022-12-03T02:05:52.733Z,101190.84
2022-12-03T02:08:33.953Z,101185.84
2022-12-03T02:11:04.496Z,101186.50
2022-12-03T02:13:33.194Z,101193.56
2022-12-03T02:16:01.159Z,101183.13
2022-12-03T02:18:32.085Z,101185.91
2022-12-03T02:21:22.035Z,101189.44
2022-12-03T02:24:10.994Z,101193.56
2022-12-03T02:26:54.741Z,101185.72
2022-12-03T02:29:25.621Z,101197.78
2022-12-03T02:31:59.663Z,101199.91
2022-12-03T02:34:52.629Z,101202.38
2022-12-03T02:37:30.198Z,101194.41
2022-12-03T02:40:13.820Z,101178.13
2022-12-03T02:43:02.715Z,101193.16
2022-12-03T02:45:33.534Z,101199.31
2022-12-03T02:48:22.860Z,101186.34
2022-12-03T02:51:05.663Z,101190.13
2022-12-03T02:53:42.240Z,101182.91
2022-12-03T02:56:13.122Z,101195.28
2022-12-03T02:58:44.981Z,101194.41
2022-12-03T03:01:15.477Z,101186.09
2022-12-03T03:03:44.764Z,101189.63
2022-12-03T03:06:13.395Z,101182.16
2022-12-03T03:08:42.607Z,101174.75
2022-12-03T03:11:10.611Z,101191.63
2022-12-03T03:13:40.285Z,101179.94
2022-12-03T03:16:10.667Z,101182.81
2022-12-03T03:18:39.547Z,101186.84
2022-12-03T03:21:07.707Z,101187.88
2022-12-03T03:23:38.139Z,101183.09
2022-12-03T03:26:08.807Z,101189.91
2022-12-03T03:28:40.058Z,101181.28
2022-12-03T03:31:12.370Z,101168.84
2022-12-03T03:33:42.655Z,101180.91
2022-12-03T03:36:11.139Z,101182.44
2022-12-03T03:38:40.285Z,101187.44
2022-12-03T03:41:10.584Z,101186.66
2022-12-03T03:43:42.220Z,101188.47
2022-12-03T03:46:13.417Z,101187.50
2022-12-03T03:48:42.717Z,101185.78
2022-12-03T03:51:12.153Z,101191.16
2022-12-03T03:53:42.711Z,101184.16
2022-12-03T03:56:11.408Z,101188.72
2022-12-03T03:58:39.860Z,101186.41
2022-12-03T04:01:08.406Z,101180.44
2022-12-03T04:03:38.195Z,101188.25
2022-12-03T04:06:06.942Z,101183.06
2022-12-03T04:08:34.910Z,101182.09
2022-12-03T04:11:20.537Z,101178.00
2022-12-03T04:13:48.509Z,101192.72
2022-12-03T04:16:16.495Z,101188.44
2022-12-03T04:18:45.850Z,101180.44
2022-12-03T04:21:32.074Z,101181.84
2022-12-03T04:24:00.096Z,101179.03
2022-12-03T04:26:45.806Z,101192.38
2022-12-03T04:29:15.215Z,101189.97
2022-12-03T04:32:00.756Z,101188.91
2022-12-03T04:34:47.734Z,101190.38
2022-12-03T04:37:15.754Z,101187.88
2022-12-03T04:39:44.050Z,101195.41
2022-12-03T04:42:11.986Z,101191.00
2022-12-03T04:44:40.100Z,101190.81
2022-12-03T04:47:11.301Z,101199.25
2022-12-03T04:49:42.575Z,101194.53
2022-12-03T04:52:12.151Z,101197.53
2022-12-03T04:54:40.581Z,101193.09
2022-12-03T04:57:09.832Z,101197.00
2022-12-03T04:59:38.522Z,101203.69
2022-12-03T05:02:07.475Z,101202.38
2022-12-03T05:04:35.594Z,101206.03
2022-12-03T05:07:04.955Z,101207.31
2022-12-03T05:09:33.820Z,101204.31
2022-12-03T05:12:01.751Z,101177.66
2022-12-03T05:14:29.702Z,101204.19
2022-12-03T05:16:57.776Z,101198.16
2022-12-03T05:19:46.075Z,101194.91
2022-12-03T05:22:14.480Z,101202.47
2022-12-03T05:24:43.389Z,101199.69
2022-12-03T05:27:11.290Z,101203.16
2022-12-03T05:29:39.235Z,101194.00
2022-12-03T05:32:07.285Z,101207.00
2022-12-03T05:34:35.283Z,101207.34
2022-12-03T05:37:03.297Z,101205.72
2022-12-03T05:39:32.649Z,101204.75
2022-12-03T05:42:17.525Z,101213.81
2022-12-03T05:44:45.502Z,101212.38
2022-12-03T05:47:13.606Z,101207.78
2022-12-03T05:49:41.737Z,101213.56
2022-12-03T05:52:09.719Z,101209.06
2022-12-03T05:54:39.054Z,101216.16
2022-12-03T05:57:07.219Z,101202.84
2022-12-03T05:59:35.369Z,101198.41
2022-12-03T06:02:03.447Z,101219.38
2022-12-03T06:04:31.421Z,101211.66
2022-12-03T06:06:59.409Z,101213.81
2022-12-03T06:09:27.357Z,101210.72
2022-12-03T06:11:56.678Z,101215.44
2022-12-03T06:14:24.447Z,101205.47
2022-12-03T06:16:52.389Z,101207.56
2022-12-03T06:19:20.411Z,101214.38
2022-12-03T06:21:48.353Z,101218.81
2022-12-03T06:24:16.311Z,101216.44
2022-12-03T06:26:44.283Z,101220.94
2022-12-03T06:29:13.618Z,101219.81
2022-12-03T06:31:41.449Z,101214.16
2022-12-03T06:34:09.445Z,101201.41
2022-12-03T06:36:37.456Z,101210.56
2022-12-03T06:39:05.617Z,101211.44
2022-12-03T06:41:33.580Z,101206.81
2022-12-03T06:44:01.648Z,101213.44
2022-12-03T06:46:31.323Z,101218.38
2022-12-03T06:48:59.397Z,101212.63
2022-12-03T06:51:27.502Z,101214.97
2022-12-03T06:53:55.560Z,101213.72
2022-12-03T06:56:23.538Z,101210.53
2022-12-03T06:58:51.488Z,101219.34
2022-12-03T07:01:19.669Z,101213.41
2022-12-03T07:03:49.222Z,101227.72
2022-12-03T07:06:17.516Z,101223.09
2022-12-03T07:08:45.530Z,101233.00
2022-12-03T07:11:27.347Z,101242.72
2022-12-03T07:13:58.842Z,101236.28
2022-12-03T07:16:30.484Z,101243.97
2022-12-03T07:18:59.826Z,101234.63
2022-12-03T07:21:27.876Z,101237.03
2022-12-03T07:23:55.847Z,101233.84
2022-12-03T07:26:23.861Z,101237.84
2022-12-03T07:28:51.790Z,101239.06
2022-12-03T07:31:19.727Z,101237.91
2022-12-03T07:33:47.796Z,101234.91
2022-12-03T07:36:17.187Z,101237.56
2022-12-03T07:38:45.079Z,101241.13
2022-12-03T07:41:13.124Z,101235.00
2022-12-03T07:43:41.150Z,101230.53
2022-12-03T07:46:09.595Z,101227.78
2022-12-03T07:48:37.571Z,101223.75
2022-12-03T07:51:05.557Z,101220.66
2022-12-03T07:53:36.174Z,101216.06
2022-12-03T07:56:04.738Z,101225.03
2022-12-03T07:58:32.828Z,101216.53
2022-12-03T08:01:00.901Z,101218.19
2022-12-03T08:03:29.013Z,101221.63
2022-12-03T08:05:56.980Z,101218.88
2022-12-03T08:08:24.925Z,101218.72
2022-12-03T08:10:54.344Z,101216.47
2022-12-03T08:13:22.334Z,101207.19
2022-12-03T08:15:50.331Z,101208.84
2022-12-03T08:18:20.457Z,101217.00
2022-12-03T08:20:49.716Z,101212.44
2022-12-03T08:23:19.854Z,101201.59
2022-12-03T08:25:50.460Z,101199.63
2022-12-03T08:28:22.036Z,101206.75
2022-12-03T08:31:01.195Z,101198.94
2022-12-03T08:33:33.624Z,101200.19
2022-12-03T08:36:07.290Z,101198.19
2022-12-03T08:38:35.420Z,101201.59
2022-12-03T08:41:03.403Z,101205.13
2022-12-03T08:43:42.133Z,101213.31
2022-12-03T08:46:16.883Z,101212.47
2022-12-03T08:48:49.007Z,101216.81
2022-12-03T08:51:23.776Z,101215.44
2022-12-03T08:53:59.693Z,101210.91
2022-12-03T08:56:31.715Z,101213.78
2022-12-03T08:59:07.860Z,101218.69
2022-12-03T09:01:42.811Z,101215.00
2022-12-03T09:04:26.306Z,101220.00
2022-12-03T09:06:55.436Z,101210.72
2022-12-03T09:09:23.215Z,101209.28
2022-12-03T09:11:51.407Z,101206.56
2022-12-03T09:14:22.787Z,101207.00
2022-12-03T09:16:52.111Z,101202.41
2022-12-03T09:19:20.191Z,101189.44
2022-12-03T09:21:50.246Z,101184.84
2022-12-03T09:24:20.827Z,101182.94
2022-12-03T09:26:48.906Z,101182.25
2022-12-03T09:29:17.084Z,101171.63
2022-12-03T09:31:46.568Z,101172.47
2022-12-03T09:34:14.600Z,101161.41
2022-12-03T09:36:42.588Z,101160.75
2022-12-03T09:39:10.525Z,101165.09
2022-12-03T09:41:38.701Z,101159.56
2022-12-03T09:44:09.602Z,101156.03
2022-12-03T09:46:43.017Z,101153.84
2022-12-03T09:49:16.419Z,101160.38
2022-12-03T09:51:45.354Z,101152.41
2022-12-03T09:54:20.414Z,101155.06
2022-12-03T09:56:48.520Z,101152.97
2022-12-03T09:59:17.276Z,101146.47
2022-12-03T10:01:45.752Z,101146.28
2022-12-03T10:04:15.311Z,101139.59
2022-12-03T10:06:45.983Z,101138.34
2022-12-03T10:09:18.334Z,101136.75
2022-12-03T10:11:46.328Z,101133.84
2022-12-03T10:14:17.937Z,101124.31
2022-12-03T10:16:46.324Z,101125.06
2022-12-03T10:19:20.514Z,101118.47
2022-12-03T10:21:48.504Z,101117.63
2022-12-03T10:24:22.629Z,101109.66
2022-12-03T10:26:52.898Z,101111.22
2022-12-03T10:29:26.830Z,101105.16
2022-12-03T10:31:59.251Z,101109.25
2022-12-03T10:34:31.691Z,101105.25
2022-12-03T10:37:11.804Z,101095.44
2022-12-03T10:40:01.886Z,101108.84
2022-12-03T10:42:32.180Z,101102.50
2022-12-03T10:45:19.117Z,101102.34
2022-12-03T10:48:06.752Z,101095.97
2022-12-03T10:50:36.823Z,101088.91
2022-12-03T10:53:05.347Z,101093.59
2022-12-03T10:55:38.930Z,101098.84
2022-12-03T10:58:06.976Z,101098.22
2022-12-03T11:00:35.328Z,101098.66
2022-12-03T11:03:03.323Z,101087.28
2022-12-03T11:05:31.322Z,101077.66
2022-12-03T11:08:00.698Z,101078.31
2022-12-03T11:10:28.919Z,101081.41
2022-12-03T11:13:46.252Z,101080.16
2022-12-03T11:16:15.384Z,101082.22
2022-12-03T11:19:02.675Z,101076.00
2022-12-03T11:21:31.573Z,101063.97
2022-12-03T11:24:21.915Z,101069.69
2022-12-03T11:27:26.649Z,101061.13
2022-12-03T11:30:00.201Z,101063.66
2022-12-03T11:33:01.789Z,101065.94
2022-12-03T11:35:37.528Z,101060.69
2022-12-03T11:38:50.728Z,101063.28
2022-12-03T11:41:24.631Z,101062.78
2022-12-03T11:44:31.956Z,101057.03
2022-12-03T11:47:08.945Z,101051.28
2022-12-03T11:49:39.493Z,101049.09
2022-12-03T11:52:26.514Z,101049.44
2022-12-03T11:54:58.680Z,101047.97
2022-12-03T11:57:34.911Z,101041.81
2022-12-03T12:00:10.956Z,101043.91
2022-12-03T12:02:43.029Z,101050.91
2022-12-03T12:05:27.610Z,101046.75
2022-12-03T12:07:57.052Z,101038.56
2022-12-03T12:10:40.306Z,101041.72
2022-12-03T12:13:27.273Z,101033.56
2022-12-03T12:15:55.362Z,101049.28
2022-12-03T12:18:41.037Z,101043.56
2022-12-03T12:21:41.000Z,101045.44
2022-12-03T12:24:36.349Z,101041.69
2022-12-03T12:27:07.726Z,101029.88
2022-12-03T12:29:39.479Z,101040.06
2022-12-03T12:32:16.348Z,101042.19
2022-12-03T12:34:45.808Z,101045.63
2022-12-03T12:37:15.566Z,101046.94
2022-12-03T12:39:43.893Z,101041.53
2022-12-03T12:42:33.094Z,101043.88
2022-12-03T12:45:17.343Z,101053.94
2022-12-03T12:47:51.008Z,101048.94
2022-12-03T12:50:20.574Z,101042.53
2022-12-03T12:52:51.927Z,101042.44
2022-12-03T12:55:20.846Z,101042.34
2022-12-03T12:57:48.942Z,101044.03
2022-12-03T13:00:22.427Z,101039.63
2022-12-03T13:02:54.779Z,101022.34
2022-12-03T13:05:22.832Z,101039.88
2022-12-03T13:07:54.069Z,101041.38
2022-12-03T13:10:42.018Z,101033.84
2022-12-03T13:13:23.324Z,101036.19
2022-12-03T13:15:59.710Z,101030.66
2022-12-03T13:18:42.361Z,101036.81
2022-12-03T13:21:22.030Z,101034.09
2022-12-03T13:23:52.235Z,101040.56
2022-12-03T13:26:36.176Z,101046.13
2022-12-03T13:29:14.500Z,101055.28
2022-12-03T13:31:50.185Z,101050.72
2022-12-03T13:34:21.702Z,101051.84
2022-12-03T13:36:57.059Z,101045.25
2022-12-03T13:39:30.662Z,101047.00
2022-12-03T13:42:17.753Z,101048.41
2022-12-03T13:44:48.186Z,101054.28
2022-12-03T13:47:21.440Z,101042.97
2022-12-03T13:49:53.859Z,101054.16
2022-12-03T13:52:25.627Z,101047.38
2022-12-03T13:54:55.922Z,101042.66
2022-12-03T13:57:24.323Z,101041.22
2022-12-03T13:59:52.545Z,101032.63
2022-12-03T14:02:22.280Z,101049.19
2022-12-03T14:04:52.166Z,101049.69
2022-12-03T14:07:23.373Z,101052.69
2022-12-03T14:09:51.787Z,101058.78
2022-12-03T14:12:33.656Z,101058.72
2022-12-03T14:15:02.028Z,101057.19
2022-12-03T14:17:31.935Z,101052.13
2022-12-03T14:20:01.022Z,101053.81
2022-12-03T14:22:28.795Z,101066.53
2022-12-03T14:24:56.840Z,101069.78
2022-12-03T14:27:25.474Z,101068.28
2022-12-03T14:29:53.929Z,101069.53
2022-12-03T14:32:22.256Z,101065.88
2022-12-03T14:34:51.603Z,101073.69
2022-12-03T14:37:19.624Z,101067.69
2022-12-03T14:39:47.575Z,101063.69
2022-12-03T14:42:15.612Z,101069.59
2022-12-03T14:44:45.006Z,101073.44
2022-12-03T14:47:13.564Z,101072.00
2022-12-03T14:49:41.819Z,101073.34
2022-12-03T14:52:12.649Z,101059.72
2022-12-03T14:54:42.495Z,101070.66
2022-12-03T14:57:12.528Z,101080.09
2022-12-03T14:59:40.718Z,101057.38
2022-12-03T15:02:09.143Z,101076.19
2022-12-03T15:04:37.688Z,101086.97
2022-12-03T15:07:06.206Z,101087.19
2022-12-03T15:09:35.742Z,101077.09
2022-12-03T15:12:03.986Z,101086.41
2022-12-03T15:14:32.043Z,101089.06
2022-12-03T15:17:00.061Z,101087.56
2022-12-03T15:19:28.045Z,101100.59
2022-12-03T15:21:56.055Z,101100.53
2022-12-03T15:24:24.113Z,101093.88
2022-12-03T15:26:53.595Z,101064.56
2022-12-03T15:29:21.978Z,101086.75
2022-12-03T15:31:50.087Z,101084.53
2022-12-03T15:34:22.436Z,101090.41
2022-12-03T15:36:51.045Z,101083.72
2022-12-03T15:39:19.035Z,101088.50
2022-12-03T15:41:46.967Z,101077.19
2022-12-03T15:44:16.344Z,101086.50
2022-12-03T15:46:44.471Z,101081.53
2022-12-03T15:49:12.450Z,101088.63
2022-12-03T15:51:40.445Z,101083.91
2022-12-03T15:54:08.445Z,101091.25
2022-12-03T15:56:37.704Z,101095.03
2022-12-03T15:59:05.886Z,101092.66
2022-12-03T16:01:35.371Z,101092.06
2022-12-03T16:04:03.386Z,101091.53
2022-12-03T16:06:31.381Z,101098.09
2022-12-03T16:08:59.298Z,101088.59
2022-12-03T16:11:27.308Z,101094.13
2022-12-03T16:13:55.260Z,101101.13
2022-12-03T16:16:23.235Z,101104.50
2022-12-03T16:18:52.706Z,101097.25
2022-12-03T16:21:25.082Z,101105.13
2022-12-03T16:23:54.837Z,101108.16
2022-12-03T16:26:22.839Z,101101.91
2022-12-03T16:28:50.834Z,101105.13
2022-12-03T16:31:19.255Z,101110.19
2022-12-03T16:33:47.420Z,101107.78
2022-12-03T16:36:17.192Z,101107.50
2022-12-03T16:38:45.139Z,101104.78
2022-12-03T16:41:13.204Z,101111.03
2022-12-03T16:43:41.211Z,101109.63
2022-12-03T16:46:25.593Z,101104.69
2022-12-03T16:48:55.317Z,101116.31
2022-12-03T16:51:25.682Z,101116.94
2022-12-03T16:53:53.935Z,101111.56
2022-12-03T16:56:22.127Z,101114.34
2022-12-03T16:58:50.046Z,101121.22
2022-12-03T17:01:18.460Z,101115.41
2022-12-03T17:03:46.570Z,101112.19
2022-12-03T17:06:14.577Z,101103.91
2022-12-03T17:08:49.142Z,101099.78
2022-12-03T17:11:17.966Z,101108.31
2022-12-03T17:13:46.377Z,101105.03
2022-12-03T17:16:14.432Z,101115.59
2022-12-03T17:18:42.719Z,101105.25
2022-12-03T17:21:10.680Z,101105.47
2022-12-03T17:23:38.619Z,101107.06
2022-12-03T17:26:08.200Z,101109.66
2022-12-03T17:28:36.169Z,101113.63
2022-12-03T17:31:04.177Z,101114.50
2022-12-03T17:33:32.333Z,101111.03
2022-12-03T17:36:00.302Z,101116.41
2022-12-03T17:38:29.254Z,101120.44
2022-12-03T17:40:59.606Z,101126.78
2022-12-03T17:43:29.024Z,101119.25
2022-12-03T17:45:57.234Z,101118.94
2022-12-03T17:48:25.212Z,101119.31
2022-12-03T17:50:55.332Z,101115.97
2022-12-03T17:53:23.217Z,101111.56
2022-12-03T17:55:51.115Z,101118.56
2022-12-03T17:58:19.114Z,101115.47
2022-12-03T18:00:48.506Z,101111.78
2022-12-03T18:03:16.456Z,101103.91
2022-12-03T18:05:44.417Z,101113.69
2022-12-03T18:08:12.454Z,101105.38
2022-12-03T18:10:40.487Z,101115.53
2022-12-03T18:13:08.423Z,101110.44
2022-12-03T18:15:36.427Z,101113.44
2022-12-03T18:18:05.988Z,101114.88
2022-12-03T18:20:34.207Z,101117.66
2022-12-03T18:23:02.476Z,101109.22
2022-12-03T18:25:30.945Z,101123.25
2022-12-03T18:27:58.902Z,101116.16
2022-12-03T18:30:26.886Z,101114.81
2022-12-03T18:32:54.887Z,101125.56
2022-12-03T18:35:24.503Z,101132.38
2022-12-03T18:37:52.871Z,101134.41
2022-12-03T18:40:24.760Z,101130.28
2022-12-03T18:42:54.247Z,101134.50
2022-12-03T18:45:22.226Z,101128.94
2022-12-03T18:47:50.223Z,101130.38
2022-12-03T18:50:18.657Z,101126.63
2022-12-03T18:52:48.002Z,101116.00
2022-12-03T18:55:17.694Z,101117.13
2022-12-03T18:57:45.801Z,101121.81
2022-12-03T19:00:15.111Z,101135.75
2022-12-03T19:05:31.404Z,101111.72
2022-12-03T19:08:01.039Z,101121.66
2022-12-03T19:10:29.072Z,101120.22
2022-12-03T19:12:57.141Z,101124.75
2022-12-03T19:15:25.099Z,101101.91
2022-12-03T19:17:53.065Z,101129.53
2022-12-03T19:20:21.100Z,101119.47
2022-12-03T19:22:49.101Z,101121.00
2022-12-03T19:25:18.762Z,101121.22
2022-12-03T19:27:46.700Z,101115.06
2022-12-03T19:30:15.172Z,101107.38
2022-12-03T19:32:43.229Z,101110.06
2022-12-03T19:35:11.418Z,101107.78
2022-12-03T19:37:39.566Z,101114.03
2022-12-03T19:40:10.611Z,101121.13
2022-12-03T19:42:40.104Z,101126.41
2022-12-03T19:45:08.963Z,101139.13
2022-12-03T19:47:37.061Z,101130.81
2022-12-03T19:50:06.038Z,101125.44
2022-12-03T19:52:36.424Z,101121.13
2022-12-03T19:55:05.164Z,101118.06
2022-12-03T19:57:33.183Z,101119.50
2022-12-03T20:00:02.535Z,101109.34
2022-12-03T20:02:40.549Z,101120.88
2022-12-03T20:05:08.729Z,101116.59
2022-12-03T20:07:36.731Z,101118.63
2022-12-03T20:10:05.283Z,101110.31
2022-12-03T20:12:34.016Z,101125.28
2022-12-03T20:15:03.317Z,101110.78
2022-12-03T20:17:31.038Z,101121.41
2022-12-03T20:19:58.952Z,101113.75
2022-12-03T20:22:26.895Z,101126.78
2022-12-03T20:24:54.889Z,101125.19
2022-12-03T20:27:23.256Z,101139.88
2022-12-03T20:29:51.394Z,101134.78
2022-12-03T20:32:20.986Z,101133.34
2022-12-03T20:34:49.688Z,101138.63
2022-12-03T20:37:18.169Z,101140.06
2022-12-03T20:39:46.119Z,101137.66
2022-12-03T20:42:14.031Z,101128.81
2022-12-03T20:44:42.069Z,101137.00
2022-12-03T20:47:10.174Z,101141.47
2022-12-03T20:49:40.293Z,101137.00
2022-12-03T20:52:08.262Z,101138.72
2022-12-03T20:54:36.248Z,101126.69
2022-12-03T20:57:04.474Z,101132.47
2022-12-03T20:59:32.864Z,101144.56
2022-12-03T21:02:00.926Z,101151.69
2022-12-03T21:04:29.057Z,101147.75
2022-12-03T21:06:58.453Z,101155.63
2022-12-03T21:09:26.504Z,101161.28
2022-12-03T21:11:54.547Z,101156.94
2022-12-03T21:14:24.821Z,101156.09
2022-12-03T21:17:10.437Z,101159.63
2022-12-03T21:19:39.037Z,101140.16
2022-12-03T21:22:08.702Z,101165.03
2022-12-03T21:24:36.671Z,101146.41
2022-12-03T21:27:04.779Z,101137.28
2022-12-03T21:29:32.734Z,101132.69
2022-12-03T21:32:00.707Z,101141.22
2022-12-03T21:34:35.572Z,101147.16
2022-12-03T21:37:04.674Z,101149.00
2022-12-03T21:39:34.274Z,101134.88
2022-12-03T21:42:34.859Z,101140.16
2022-12-03T21:44:50.327Z,101129.88
2022-12-03T21:47:18.262Z,101138.44
2022-12-03T21:49:46.251Z,101131.44
2022-12-03T21:52:14.227Z,101121.63
2022-12-03T21:54:43.557Z,101130.94
2022-12-03T21:57:11.649Z,101123.75
2022-12-03T21:59:39.614Z,101135.44
2022-12-03T22:02:07.910Z,101141.88
2022-12-03T22:04:36.023Z,101147.75
2022-12-03T22:07:04.546Z,101146.78
2022-12-03T22:09:33.692Z,101152.94
2022-12-03T22:12:03.079Z,101146.78
2022-12-03T22:14:31.391Z,101142.84
2022-12-03T22:16:59.354Z,101141.31
2022-12-03T22:19:27.605Z,101135.38
2022-12-03T22:21:55.675Z,101147.63
2022-12-03T22:24:24.108Z,101141.59
2022-12-03T22:26:53.524Z,101125.47
2022-12-03T22:29:23.340Z,101118.75
2022-12-03T22:31:51.508Z,101122.97
2022-12-03T22:34:19.441Z,101126.53
2022-12-03T22:36:47.437Z,101112.03
2022-12-03T22:39:15.445Z,101121.72
2022-12-03T22:41:43.384Z,101124.22
2022-12-03T22:44:11.835Z,101133.34
2022-12-03T22:46:41.321Z,101132.47
2022-12-03T22:49:09.363Z,101121.16
2022-12-03T22:51:37.341Z,101117.03
2022-12-03T22:54:05.636Z,101118.25
2022-12-03T22:56:34.009Z,101118.06
2022-12-03T22:59:02.040Z,101123.56
2022-12-03T23:01:31.956Z,101110.69
2022-12-03T23:04:02.125Z,101129.22
2022-12-03T23:06:30.517Z,101115.97
2022-12-03T23:08:59.695Z,101107.72
2022-12-03T23:11:28.640Z,101118.84
2022-12-03T23:13:56.866Z,101083.06
2022-12-03T23:16:27.944Z,101106.56
2022-12-03T23:18:55.981Z,101121.81
2022-12-03T23:21:29.946Z,101115.13
2022-12-03T23:23:58.743Z,101132.31
2022-12-03T23:26:27.291Z,101134.22
2022-12-03T23:28:55.494Z,101119.16
2022-12-03T23:31:26.493Z,101112.53
2022-12-03T23:33:55.405Z,101113.69
2022-12-03T23:36:26.583Z,101108.69
2022-12-03T23:38:55.227Z,101120.50
2022-12-03T23:41:24.688Z,101119.44
2022-12-03T23:43:53.205Z,101128.44
2022-12-03T23:46:23.313Z,101127.13
2022-12-03T23:48:52.013Z,101119.66
2022-12-03T23:51:22.501Z,101121.56
2022-12-03T23:53:52.893Z,101111.47
2022-12-03T23:56:23.036Z,101069.66
2022-12-03T23:58:51.185Z,101116.75
